Time;durP1;ratioP1;P1;durP2;ratioP2;P2;SDS_P1;SDS_P2;PMS_P1;PMS_P2;Temp;Humidity;BMP_temperature;BMP_pressure;BME280_temperature;BME280_humidity;BME280_pressure;Samples;Min_cycle;Max_cycle;Signal;HPM_P1;HPM_P2
2024/03/04 00:01:18;;;;;;;10.88;5.97;;;3.00;99.90;;;;;;5035030;28;20041;-65
2024/03/04 00:03:46;;;;;;;11.60;6.55;;;3.00;99.90;;;;;;5034621;28;20125;-65
2024/03/04 00:06:12;;;;;;;9.70;6.10;;;3.00;99.90;;;;;;5034458;28;20045;-64
2024/03/04 00:08:39;;;;;;;11.50;6.90;;;2.90;99.90;;;;;;5034648;28;20038;-64
2024/03/04 00:11:07;;;;;;;11.55;6.45;;;2.90;99.90;;;;;;5034370;28;20037;-65
2024/03/04 00:13:35;;;;;;;12.18;6.40;;;2.90;99.90;;;;;;5034380;28;20107;-64
2024/03/04 00:16:05;;;;;;;12.70;6.32;;;2.90;99.90;;;;;;5034072;28;20145;-65
2024/03/04 00:18:31;;;;;;;11.82;6.80;;;2.80;99.90;;;;;;5034847;28;20045;-65
2024/03/04 00:20:58;;;;;;;15.05;6.65;;;2.80;99.90;;;;;;5034092;28;20491;-65
2024/03/04 00:23:25;;;;;;;10.75;6.40;;;2.80;99.90;;;;;;5034597;28;20041;-65
2024/03/04 00:25:52;;;;;;;18.55;7.88;;;2.80;99.90;;;;;;5034571;28;20037;-64
2024/03/04 00:28:19;;;;;;;20.60;8.55;;;2.80;99.90;;;;;;5034560;28;20042;-65
2024/03/04 00:30:46;;;;;;;19.00;8.98;;;2.70;99.90;;;;;;5034296;28;20404;-65
2024/03/04 00:33:13;;;;;;;17.10;7.85;;;2.70;99.90;;;;;;5034397;28;20092;-64
2024/03/04 00:35:41;;;;;;;17.33;7.55;;;2.70;99.90;;;;;;5034165;28;20453;-65
2024/03/04 00:38:08;;;;;;;15.48;8.00;;;2.70;99.90;;;;;;5033688;28;20103;-63
2024/03/04 00:40:34;;;;;;;15.93;7.45;;;2.60;99.90;;;;;;5034345;28;20046;-65
2024/03/04 00:43:01;;;;;;;13.23;7.30;;;2.60;99.90;;;;;;5018025;28;20041;-64
2024/03/04 00:45:28;;;;;;;11.45;6.82;;;2.60;99.90;;;;;;5014236;28;20042;-64
2024/03/04 00:47:55;;;;;;;11.82;6.63;;;2.60;99.90;;;;;;5013947;28;20072;-64
2024/03/04 00:50:21;;;;;;;10.82;6.38;;;2.60;99.90;;;;;;5029720;28;20041;-63
2024/03/04 00:52:48;;;;;;;13.68;6.53;;;2.60;99.90;;;;;;5014563;28;20046;-63
2024/03/04 00:55:17;;;;;;;10.32;5.78;;;2.60;99.90;;;;;;5014442;28;20041;-62
2024/03/04 00:57:44;;;;;;;10.18;5.63;;;2.60;99.90;;;;;;5014321;28;20049;-63
2024/03/04 01:00:14;;;;;;;11.48;5.80;;;2.50;99.90;;;;;;5013912;28;20042;-63
2024/03/04 01:02:41;;;;;;;8.18;5.25;;;2.50;99.90;;;;;;5028977;28;20402;-63
2024/03/04 01:05:08;;;;;;;8.65;5.30;;;2.50;99.90;;;;;;5014001;28;20104;-63
2024/03/04 01:07:35;;;;;;;6.25;4.93;;;2.40;99.90;;;;;;5029430;28;20439;-63
2024/03/04 01:10:02;;;;;;;9.95;5.57;;;2.40;99.90;;;;;;5014158;28;20097;-64
2024/03/04 01:12:29;;;;;;;8.02;5.15;;;2.40;99.90;;;;;;5028921;28;20464;-64
2024/03/04 01:14:55;;;;;;;7.95;5.05;;;2.40;99.90;;;;;;5013346;28;20050;-64
2024/03/04 01:17:22;;;;;;;9.82;4.97;;;2.40;99.90;;;;;;5013973;28;20042;-64
2024/03/04 01:19:50;;;;;;;7.88;5.03;;;2.40;99.90;;;;;;5014178;28;20387;-64
2024/03/04 01:22:17;;;;;;;9.00;5.05;;;2.30;99.90;;;;;;5028912;28;20046;-64
2024/03/04 01:24:44;;;;;;;7.93;4.60;;;2.30;99.90;;;;;;5013603;28;20050;-64
2024/03/04 01:27:11;;;;;;;8.38;4.93;;;2.30;99.90;;;;;;5013708;28;20037;-64
2024/03/04 01:29:38;;;;;;;9.35;5.10;;;2.30;99.90;;;;;;5013545;28;20055;-64
2024/03/04 01:32:05;;;;;;;6.95;4.82;;;2.20;99.90;;;;;;5013772;28;20095;-64
2024/03/04 01:34:31;;;;;;;6.97;5.03;;;2.20;99.90;;;;;;5014108;28;20046;-64
2024/03/04 01:36:58;;;;;;;7.00;5.25;;;2.20;99.90;;;;;;5013913;28;20359;-64
2024/03/04 01:39:26;;;;;;;7.97;4.97;;;2.10;99.90;;;;;;5013905;28;20045;-64
2024/03/04 01:41:53;;;;;;;8.15;5.03;;;2.10;99.90;;;;;;5013458;28;20042;-64
2024/03/04 01:44:19;;;;;;;8.35;4.95;;;2.10;99.90;;;;;;5013560;28;20046;-64
2024/03/04 01:46:46;;;;;;;8.20;5.00;;;2.10;99.90;;;;;;5013614;28;20042;-64
2024/03/04 01:49:13;;;;;;;6.55;4.85;;;2.10;99.90;;;;;;5014136;28;20041;-64
2024/03/04 01:51:40;;;;;;;10.23;4.88;;;2.10;99.90;;;;;;5016321;28;20092;-64
2024/03/04 01:54:06;;;;;;;10.73;5.97;;;2.00;99.90;;;;;;5017350;28;20054;-64
2024/03/04 01:56:33;;;;;;;9.77;5.07;;;2.00;99.90;;;;;;5032379;28;20052;-64
2024/03/04 01:59:00;;;;;;;6.38;4.50;;;2.00;99.90;;;;;;5017505;28;20077;-64
2024/03/04 02:01:27;;;;;;;6.65;4.60;;;2.00;99.90;;;;;;5017319;28;20045;-64
2024/03/04 02:03:54;;;;;;;7.85;4.60;;;1.90;99.90;;;;;;5032703;28;20046;-64
2024/03/04 02:06:21;;;;;;;6.75;4.65;;;1.90;99.90;;;;;;5032563;28;20054;-64
2024/03/04 02:08:48;;;;;;;8.80;4.55;;;1.90;99.90;;;;;;5017221;28;20041;-64
2024/03/04 02:11:15;;;;;;;8.80;4.43;;;1.90;99.90;;;;;;5017428;28;20042;-64
2024/03/04 02:13:42;;;;;;;8.77;4.38;;;1.90;99.90;;;;;;5017023;28;20402;-65
2024/03/04 02:16:09;;;;;;;8.52;4.38;;;1.90;99.90;;;;;;5031791;28;20049;-65
2024/03/04 02:18:36;;;;;;;8.35;4.28;;;1.80;99.90;;;;;;5017221;28;20129;-65
2024/03/04 02:21:03;;;;;;;7.47;4.32;;;1.90;99.90;;;;;;5016637;28;20092;-65
2024/03/04 02:23:30;;;;;;;7.78;4.18;;;1.80;99.90;;;;;;5016852;28;20096;-65
2024/03/04 02:25:57;;;;;;;9.10;4.32;;;1.80;99.90;;;;;;5016665;28;20141;-65
2024/03/04 02:28:27;;;;;;;7.78;4.63;;;1.80;99.90;;;;;;5016899;28;20046;-65
2024/03/04 02:30:54;;;;;;;6.68;4.30;;;1.80;99.90;;;;;;5016467;28;20390;-65
2024/03/04 02:33:21;;;;;;;6.43;3.97;;;1.80;99.90;;;;;;5016538;28;20069;-63
2024/03/04 02:35:48;;;;;;;7.38;4.38;;;1.80;99.90;;;;;;5016352;28;20046;-63
2024/03/04 02:38:15;;;;;;;7.85;4.72;;;1.70;99.90;;;;;;5016772;28;20117;-63
2024/03/04 02:40:42;;;;;;;9.52;4.60;;;1.80;99.90;;;;;;5016865;28;20068;-63
2024/03/04 02:43:11;;;;;;;7.80;4.38;;;1.80;99.90;;;;;;5016774;28;20042;-63
2024/03/04 02:45:38;;;;;;;6.25;4.30;;;1.70;99.90;;;;;;5015994;28;20483;-63
2024/03/04 02:48:05;;;;;;;9.20;4.22;;;1.70;99.90;;;;;;5016409;28;20353;-63
2024/03/04 02:50:36;;;;;;;9.25;3.92;;;1.70;99.90;;;;;;5016649;28;20096;-63
2024/03/04 02:53:03;;;;;;;7.03;4.38;;;1.70;99.90;;;;;;5016479;28;20100;-63
2024/03/04 02:55:29;;;;;;;7.30;4.63;;;1.70;99.90;;;;;;5016242;28;20057;-62
2024/03/04 02:57:56;;;;;;;7.25;3.95;;;1.70;99.90;;;;;;5016040;28;20406;-63
2024/03/04 03:00:23;;;;;;;7.40;4.22;;;1.60;99.90;;;;;;5016047;28;20053;-63
2024/03/04 03:02:50;;;;;;;8.45;4.80;;;1.60;99.90;;;;;;5015920;28;20049;-63
2024/03/04 03:05:17;;;;;;;5.70;3.90;;;1.60;99.90;;;;;;5016112;28;20403;-63
2024/03/04 03:07:44;;;;;;;7.15;3.92;;;1.60;99.90;;;;;;5016109;28;20042;-63
2024/03/04 03:10:11;;;;;;;6.38;3.63;;;1.60;99.90;;;;;;5015656;28;20553;-63
2024/03/04 03:12:38;;;;;;;7.28;3.95;;;1.60;99.90;;;;;;5015946;28;20037;-63
2024/03/04 03:15:06;;;;;;;6.53;3.75;;;1.50;99.90;;;;;;5015739;28;20046;-65
2024/03/04 03:17:35;;;;;;;7.88;3.83;;;1.50;99.90;;;;;;5015558;28;20593;-65
2024/03/04 03:20:09;;;;;;;8.13;4.65;;;1.50;99.90;;;;;;5015415;28;20497;-65
2024/03/04 03:22:35;;;;;;;6.93;3.92;;;1.50;99.90;;;;;;5015719;28;20052;-65
2024/03/04 03:25:02;;;;;;;6.75;3.60;;;1.50;99.90;;;;;;5030941;28;20045;-66
2024/03/04 03:27:29;;;;;;;7.93;4.05;;;1.50;99.90;;;;;;5015949;28;20080;-65
2024/03/04 03:29:56;;;;;;;5.35;3.65;;;1.50;99.90;;;;;;5030538;28;20042;-66
2024/03/04 03:32:23;;;;;;;5.70;3.25;;;1.50;99.90;;;;;;5015503;28;20118;-66
2024/03/04 03:34:50;;;;;;;6.90;3.75;;;1.50;99.90;;;;;;5015295;28;20487;-66
2024/03/04 03:37:16;;;;;;;6.78;4.30;;;1.50;99.90;;;;;;5030732;28;20386;-65
2024/03/04 03:39:43;;;;;;;6.82;3.85;;;1.50;99.90;;;;;;5015141;28;20125;-66
2024/03/04 03:42:11;;;;;;;5.75;4.05;;;1.50;99.90;;;;;;5015796;28;20041;-63
2024/03/04 03:44:38;;;;;;;5.22;3.80;;;1.50;99.90;;;;;;5015143;28;20490;-63
2024/03/04 03:47:05;;;;;;;6.35;4.20;;;1.50;99.90;;;;;;5015365;28;20482;-63
2024/03/04 03:49:31;;;;;;;6.35;4.20;;;1.40;99.90;;;;;;5015467;28;20042;-63
2024/03/04 03:51:58;;;;;;;7.90;3.83;;;1.40;99.90;;;;;;5015318;28;20096;-63
2024/03/04 03:54:25;;;;;;;7.75;3.80;;;1.40;99.90;;;;;;5015723;28;20049;-63
2024/03/04 03:56:52;;;;;;;7.68;3.63;;;1.40;99.90;;;;;;5014901;28;20498;-63
2024/03/04 03:59:19;;;;;;;7.25;4.35;;;1.40;99.90;;;;;;5030175;28;20042;-63
2024/03/04 04:01:46;;;;;;;7.85;4.28;;;1.40;99.90;;;;;;5014932;28;20077;-63
2024/03/04 04:04:12;;;;;;;6.40;3.88;;;1.30;99.90;;;;;;5014809;28;20046;-63
2024/03/04 04:06:39;;;;;;;6.45;3.65;;;1.30;99.90;;;;;;5015206;28;20042;-63
2024/03/04 04:09:06;;;;;;;8.52;4.00;;;1.30;99.90;;;;;;5015163;28;20422;-63
2024/03/04 04:11:33;;;;;;;7.65;4.10;;;1.30;99.90;;;;;;5015361;28;20046;-63
2024/03/04 04:14:00;;;;;;;5.80;3.65;;;1.30;99.90;;;;;;5014404;28;20555;-63
2024/03/04 04:16:27;;;;;;;6.43;3.90;;;1.30;99.90;;;;;;5014481;28;20076;-63
2024/03/04 04:18:54;;;;;;;9.07;4.60;;;1.30;99.90;;;;;;5014924;28;20050;-63
2024/03/04 04:21:21;;;;;;;8.70;4.03;;;1.30;99.90;;;;;;5014499;28;20121;-63
2024/03/04 04:23:48;;;;;;;7.97;4.07;;;1.30;99.90;;;;;;5015261;28;20046;-63
2024/03/04 04:26:15;;;;;;;7.32;3.72;;;1.30;99.90;;;;;;5014340;28;20442;-63
2024/03/04 04:28:41;;;;;;;8.23;3.97;;;1.30;99.90;;;;;;5014875;28;20104;-63
2024/03/04 04:31:08;;;;;;;7.18;4.28;;;1.30;99.90;;;;;;5029544;28;20384;-63
2024/03/04 04:33:35;;;;;;;6.72;4.00;;;1.30;99.90;;;;;;5014794;28;20387;-63
2024/03/04 04:36:02;;;;;;;7.68;3.47;;;1.30;99.90;;;;;;5029470;28;20054;-63
2024/03/04 04:38:29;;;;;;;6.65;3.80;;;1.30;99.90;;;;;;5014743;28;20049;-63
2024/03/04 04:40:56;;;;;;;6.78;4.10;;;1.40;99.90;;;;;;5014105;28;20121;-63
2024/03/04 04:43:23;;;;;;;6.75;4.07;;;1.40;99.90;;;;;;5014529;28;20037;-63
2024/03/04 04:45:50;;;;;;;6.60;4.07;;;1.40;99.90;;;;;;5014037;28;20041;-63
2024/03/04 04:48:18;;;;;;;8.32;3.85;;;1.50;99.90;;;;;;5029539;28;20053;-63
2024/03/04 04:50:45;;;;;;;5.95;3.55;;;1.50;99.90;;;;;;5014759;28;20065;-63
2024/03/04 04:53:11;;;;;;;6.57;4.20;;;1.60;99.90;;;;;;5014315;28;20042;-63
2024/03/04 04:55:38;;;;;;;7.22;3.60;;;1.60;99.90;;;;;;5029187;28;20092;-63
2024/03/04 04:58:05;;;;;;;6.03;3.72;;;1.60;99.90;;;;;;5014135;28;20041;-63
2024/03/04 05:00:32;;;;;;;7.57;4.10;;;1.80;99.90;;;;;;5029199;28;20042;-64
2024/03/04 05:02:59;;;;;;;7.28;3.67;;;1.80;99.90;;;;;;5013790;28;20402;-63
2024/03/04 05:05:26;;;;;;;5.63;3.88;;;1.90;99.90;;;;;;5013780;28;20546;-66
2024/03/04 05:07:52;;;;;;;4.68;3.10;;;1.90;99.90;;;;;;5014400;28;20440;-65
2024/03/04 05:10:19;;;;;;;6.00;3.40;;;1.90;99.90;;;;;;5013964;28;20041;-65
2024/03/04 05:12:48;;;;;;;5.20;3.22;;;2.00;99.90;;;;;;5014129;28;20048;-66
2024/03/04 05:15:16;;;;;;;5.25;3.08;;;2.10;99.90;;;;;;5013542;28;20057;-66
2024/03/04 05:17:42;;;;;;;6.05;3.42;;;2.10;99.90;;;;;;5013860;28;20046;-65
2024/03/04 05:20:15;;;;;;;5.18;3.15;;;2.20;99.90;;;;;;5013548;28;20046;-65
2024/03/04 05:22:42;;;;;;;4.78;2.85;;;2.20;99.90;;;;;;5014149;28;20046;-65
2024/03/04 05:25:09;;;;;;;5.72;3.15;;;2.30;99.90;;;;;;5015369;28;20554;-65
2024/03/04 05:27:36;;;;;;;5.53;2.95;;;2.30;99.90;;;;;;5018029;28;20046;-66
2024/03/04 05:30:03;;;;;;;4.90;2.95;;;2.40;99.90;;;;;;5018303;28;20053;-66
2024/03/04 05:32:29;;;;;;;5.88;3.05;;;2.50;99.90;;;;;;5017665;28;20131;-66
2024/03/04 05:34:56;;;;;;;6.97;2.90;;;2.50;99.90;;;;;;5017717;28;20376;-65
2024/03/04 05:37:23;;;;;;;5.00;3.00;;;2.50;99.90;;;;;;5017502;28;20044;-66
2024/03/04 05:39:50;;;;;;;6.40;3.17;;;2.50;99.90;;;;;;5017576;28;20042;-64
2024/03/04 05:42:17;;;;;;;8.02;2.97;;;2.50;99.90;;;;;;5017839;28;20447;-66
2024/03/04 05:44:45;;;;;;;4.68;2.92;;;2.50;99.90;;;;;;5017283;28;20049;-65
2024/03/04 05:47:12;;;;;;;5.85;2.88;;;2.50;99.90;;;;;;5017460;28;20092;-66
2024/03/04 05:49:39;;;;;;;5.55;3.35;;;2.50;99.90;;;;;;5017708;28;20411;-65
2024/03/04 05:52:06;;;;;;;7.38;3.50;;;2.50;99.90;;;;;;5017377;28;20133;-66
2024/03/04 05:54:33;;;;;;;8.05;3.67;;;2.40;99.90;;;;;;5017671;28;20049;-65
2024/03/04 05:57:00;;;;;;;5.97;3.40;;;2.40;99.90;;;;;;5017569;28;20048;-65
2024/03/04 05:59:26;;;;;;;4.20;2.92;;;2.40;99.90;;;;;;5017671;28;20092;-68
2024/03/04 06:01:53;;;;;;;5.60;3.08;;;2.40;99.90;;;;;;5032404;28;20459;-65
2024/03/04 06:04:20;;;;;;;7.85;3.00;;;2.50;99.90;;;;;;5017375;28;20077;-65
2024/03/04 06:06:47;;;;;;;6.47;2.80;;;2.50;99.90;;;;;;5017182;28;20113;-66
2024/03/04 06:09:15;;;;;;;7.45;2.65;;;2.50;99.90;;;;;;5017300;28;20053;-65
2024/03/04 06:11:43;;;;;;;3.75;2.25;;;2.60;99.90;;;;;;5017441;28;20497;-65
2024/03/04 06:14:10;;;;;;;5.30;2.17;;;2.60;99.90;;;;;;5017041;28;20399;-70
2024/03/04 06:16:37;;;;;;;4.80;2.67;;;2.60;99.90;;;;;;5016777;28;20054;-65
2024/03/04 06:19:04;;;;;;;5.72;2.22;;;2.60;99.90;;;;;;5017321;28;20048;-65
2024/03/04 06:21:31;;;;;;;4.32;2.28;;;2.60;99.90;;;;;;5017052;28;20046;-65
2024/03/04 06:23:57;;;;;;;7.25;2.33;;;2.60;99.90;;;;;;5032000;28;20491;-66
2024/03/04 06:26:24;;;;;;;6.05;2.20;;;2.60;99.90;;;;;;5016397;28;20038;-66
2024/03/04 06:28:51;;;;;;;6.30;2.50;;;2.60;99.90;;;;;;5017141;28;20049;-65
2024/03/04 06:31:18;;;;;;;6.88;2.58;;;2.60;99.90;;;;;;5016922;28;20053;-66
2024/03/04 06:33:45;;;;;;;5.10;2.40;;;2.60;99.90;;;;;;5016834;28;20463;-66
2024/03/04 06:36:19;;;;;;;7.07;2.70;;;2.60;99.90;;;;;;5015693;28;20455;-67
2024/03/04 06:38:46;;;;;;;4.25;2.33;;;2.60;99.90;;;;;;5016530;28;20479;-64
2024/03/04 06:41:13;;;;;;;4.75;2.38;;;2.60;99.90;;;;;;5031993;28;20045;-65
2024/03/04 06:43:40;;;;;;;6.38;2.65;;;2.60;99.90;;;;;;5016509;28;20049;-66
2024/03/04 06:46:08;;;;;;;6.25;2.45;;;2.60;99.90;;;;;;5016180;28;20124;-66
2024/03/04 06:48:35;;;;;;;6.40;2.88;;;2.60;99.90;;;;;;5016249;28;20399;-64
2024/03/04 06:51:02;;;;;;;6.18;3.03;;;2.60;99.90;;;;;;5031421;28;20513;-64
2024/03/04 06:53:29;;;;;;;5.22;2.80;;;2.60;99.90;;;;;;5016783;28;20088;-64
2024/03/04 06:55:56;;;;;;;6.28;2.70;;;2.60;99.90;;;;;;5016106;28;20052;-64
2024/03/04 06:58:23;;;;;;;8.35;3.47;;;2.70;99.90;;;;;;5016050;28;20486;-64
2024/03/04 07:00:53;;;;;;;5.07;2.80;;;2.70;99.90;;;;;;5016688;28;20046;-65
2024/03/04 07:03:19;;;;;;;7.85;3.30;;;2.70;99.90;;;;;;5016327;28;20133;-64
2024/03/04 07:05:46;;;;;;;6.78;3.33;;;2.70;99.90;;;;;;5016041;28;20426;-64
2024/03/04 07:08:13;;;;;;;7.82;3.45;;;2.70;99.90;;;;;;5016375;28;20416;-64
2024/03/04 07:10:40;;;;;;;5.28;3.15;;;2.70;99.90;;;;;;5016160;28;20038;-64
2024/03/04 07:13:07;;;;;;;7.10;3.25;;;2.70;99.90;;;;;;5030876;28;20050;-64
2024/03/04 07:15:34;;;;;;;10.30;3.63;;;2.70;99.90;;;;;;5015464;28;20057;-64
2024/03/04 07:18:00;;;;;;;7.53;3.85;;;2.70;99.90;;;;;;5016088;28;20046;-64
2024/03/04 07:20:27;;;;;;;7.85;4.15;;;2.70;99.90;;;;;;5016020;28;20049;-64
2024/03/04 07:22:54;;;;;;;6.70;3.75;;;2.80;99.90;;;;;;5016107;28;20088;-64
2024/03/04 07:25:21;;;;;;;10.50;4.05;;;2.80;99.90;;;;;;5015823;28;20088;-64
2024/03/04 07:27:48;;;;;;;7.72;4.20;;;2.80;99.90;;;;;;5015682;28;20125;-64
2024/03/04 07:30:15;;;;;;;7.45;4.30;;;2.80;99.90;;;;;;5015844;28;20418;-64
2024/03/04 07:32:42;;;;;;;8.35;4.25;;;2.90;99.90;;;;;;5015790;28;20084;-65
2024/03/04 07:35:08;;;;;;;9.98;4.75;;;2.90;99.90;;;;;;5015638;28;20042;-64
2024/03/04 07:37:35;;;;;;;8.80;4.68;;;2.90;99.90;;;;;;5015822;28;20034;-64
2024/03/04 07:40:03;;;;;;;7.72;4.20;;;3.00;99.90;;;;;;5015910;28;20038;-64
2024/03/04 07:42:30;;;;;;;7.82;4.80;;;3.00;99.90;;;;;;5015675;28;20044;-64
2024/03/04 07:44:57;;;;;;;10.65;5.35;;;3.00;99.90;;;;;;5016172;28;20049;-66
2024/03/04 07:47:24;;;;;;;14.38;5.00;;;3.10;99.90;;;;;;5016315;28;20042;-65
2024/03/04 07:49:51;;;;;;;9.25;4.53;;;3.10;99.90;;;;;;5016088;28;20100;-64
2024/03/04 07:52:19;;;;;;;9.48;4.75;;;3.20;99.90;;;;;;5016104;28;20038;-64
2024/03/04 07:54:46;;;;;;;8.10;4.40;;;3.20;99.90;;;;;;5015710;28;20054;-66
2024/03/04 07:57:13;;;;;;;7.20;4.72;;;3.20;99.90;;;;;;5017838;28;20133;-64
2024/03/04 07:59:49;;;;;;;6.95;4.40;;;3.30;99.90;;;;;;5015779;28;20132;-64
2024/03/04 08:02:16;;;;;;;10.02;4.85;;;3.30;99.90;;;;;;5032560;28;20426;-65
2024/03/04 08:04:43;;;;;;;8.57;4.53;;;3.40;99.90;;;;;;5017309;28;20053;-64
2024/03/04 08:07:11;;;;;;;8.77;4.15;;;3.50;99.90;;;;;;5016112;28;20069;-64
2024/03/04 08:09:38;;;;;;;6.70;4.10;;;3.60;99.90;;;;;;5015819;28;20053;-64
2024/03/04 08:12:05;;;;;;;7.35;4.00;;;3.60;99.90;;;;;;5014720;28;20081;-64
2024/03/04 08:14:32;;;;;;;9.23;4.00;;;3.60;99.90;;;;;;5015555;28;20483;-65
2024/03/04 08:16:59;;;;;;;10.10;4.50;;;3.70;99.90;;;;;;5016076;28;20050;-64
2024/03/04 08:19:26;;;;;;;10.05;3.63;;;3.80;99.90;;;;;;5015280;28;20048;-65
2024/03/04 08:21:52;;;;;;;9.30;4.05;;;3.80;99.90;;;;;;5014712;28;20038;-66
2024/03/04 08:24:19;;;;;;;12.30;3.65;;;3.90;99.90;;;;;;5029893;28;20394;-66
2024/03/04 08:26:46;;;;;;;7.63;3.42;;;3.90;99.90;;;;;;5014663;28;20368;-66
2024/03/04 08:29:13;;;;;;;10.20;3.65;;;4.00;99.90;;;;;;5014637;28;20029;-66
2024/03/04 08:31:43;;;;;;;8.85;3.55;;;4.10;99.90;;;;;;5014245;28;20069;-63
2024/03/04 08:34:10;;;;;;;5.90;3.63;;;4.20;99.90;;;;;;5014177;28;20546;-63
2024/03/04 08:36:37;;;;;;;7.13;3.00;;;4.20;99.90;;;;;;5014270;28;20050;-64
2024/03/04 08:39:04;;;;;;;8.25;3.40;;;4.30;99.90;;;;;;5014665;28;20491;-65
2024/03/04 08:41:31;;;;;;;9.48;2.90;;;4.40;99.90;;;;;;5029783;28;20050;-66
2024/03/04 08:43:58;;;;;;;5.32;2.28;;;4.50;99.90;;;;;;5014122;28;20041;-66
2024/03/04 08:46:26;;;;;;;5.40;2.05;;;4.60;99.90;;;;;;5013819;28;20042;-64
2024/03/04 08:48:53;;;;;;;9.75;2.17;;;4.80;99.90;;;;;;5026433;28;20522;-65
2024/03/04 08:51:22;;;;;;;10.35;2.10;;;4.90;99.90;;;;;;5026855;28;20080;-65
2024/03/04 08:53:48;;;;;;;7.97;1.77;;;5.10;99.90;;;;;;5032001;28;20445;-65
2024/03/04 08:56:15;;;;;;;9.52;2.22;;;5.20;99.90;;;;;;5033241;28;20051;-65
2024/03/04 08:58:42;;;;;;;8.55;2.63;;;5.40;99.90;;;;;;5033312;28;20502;-64
2024/03/04 09:01:09;;;;;;;4.93;1.60;;;5.60;99.90;;;;;;5032859;28;20049;-65
2024/03/04 09:03:36;;;;;;;7.00;2.00;;;5.70;99.90;;;;;;5033297;28;20343;-65
2024/03/04 09:06:03;;;;;;;17.02;2.47;;;5.90;99.90;;;;;;5031919;28;20045;-65
2024/03/04 09:08:31;;;;;;;7.55;1.98;;;6.00;99.90;;;;;;5033016;28;20052;-64
2024/03/04 09:10:57;;;;;;;6.00;1.60;;;6.10;99.90;;;;;;5032983;28;20116;-64
2024/03/04 09:13:24;;;;;;;7.32;1.50;;;6.30;99.90;;;;;;5033336;28;20080;-65
2024/03/04 09:15:52;;;;;;;7.10;1.63;;;6.40;99.90;;;;;;5032997;28;20058;-65
2024/03/04 09:18:19;;;;;;;6.05;1.70;;;6.50;99.90;;;;;;5032879;28;20049;-65
2024/03/04 09:20:45;;;;;;;6.18;2.03;;;6.60;99.90;;;;;;5031992;28;20049;-65
2024/03/04 09:23:14;;;;;;;5.38;1.30;;;6.70;99.90;;;;;;5033883;28;20477;-65
2024/03/04 09:25:41;;;;;;;6.53;1.50;;;6.70;99.90;;;;;;5033338;28;20044;-65
2024/03/04 09:28:08;;;;;;;5.95;1.20;;;6.80;99.90;;;;;;5033817;28;20038;-64
2024/03/04 09:30:36;;;;;;;5.13;1.23;;;6.90;99.90;;;;;;5032190;28;20040;-65
2024/03/04 09:33:02;;;;;;;4.93;1.05;;;6.90;99.90;;;;;;5032848;28;20371;-64
2024/03/04 09:35:29;;;;;;;7.45;1.40;;;7.00;99.90;;;;;;5027690;28;20046;-65
2024/03/04 09:37:56;;;;;;;4.90;1.25;;;7.00;99.90;;;;;;5039570;28;20071;-65
2024/03/04 09:40:23;;;;;;;6.57;1.42;;;7.00;99.90;;;;;;5031639;28;20038;-65
2024/03/04 09:42:50;;;;;;;5.57;1.08;;;7.10;99.90;;;;;;5031664;28;20105;-65
2024/03/04 09:45:17;;;;;;;5.72;1.10;;;7.30;99.90;;;;;;5032757;28;20061;-65
2024/03/04 09:47:43;;;;;;;6.68;1.70;;;7.40;99.90;;;;;;5042413;28;20045;-65
2024/03/04 09:50:10;;;;;;;11.30;2.97;;;7.50;99.90;;;;;;5047100;28;20041;-65
2024/03/04 09:52:37;;;;;;;10.52;2.25;;;7.70;99.90;;;;;;5032810;28;20501;-65
2024/03/04 09:55:04;;;;;;;6.45;1.80;;;7.80;99.90;;;;;;5033039;28;20038;-65
2024/03/04 09:57:31;;;;;;;6.40;1.63;;;7.90;99.90;;;;;;5032858;28;20042;-64
2024/03/04 10:00:01;;;;;;;7.63;1.23;;;7.90;99.90;;;;;;5033839;28;20048;-66
2024/03/04 10:02:35;;;;;;;9.80;1.17;;;7.90;99.90;;;;;;5032627;28;20104;-65
2024/03/04 10:05:02;;;;;;;6.38;1.30;;;8.00;99.90;;;;;;5039588;28;20072;-65
2024/03/04 10:07:34;;;;;;;10.82;1.55;;;8.10;99.90;;;;;;5052296;28;20466;-67
2024/03/04 10:10:01;;;;;;;6.78;1.20;;;8.10;99.90;;;;;;5052055;28;20482;-66
2024/03/04 10:12:27;;;;;;;8.13;1.90;;;8.20;99.90;;;;;;5054637;28;20036;-66
2024/03/04 10:14:54;;;;;;;6.03;1.40;;;8.20;99.90;;;;;;5056097;28;20131;-67
2024/03/04 10:17:21;;;;;;;7.07;1.40;;;8.30;99.90;;;;;;5056107;28;20041;-67
2024/03/04 10:19:48;;;;;;;5.35;1.60;;;8.40;99.90;;;;;;5055835;28;20037;-66
2024/03/04 10:22:15;;;;;;;8.85;1.40;;;8.40;99.90;;;;;;5055953;28;20040;-65
2024/03/04 10:24:41;;;;;;;7.28;1.50;;;8.50;99.90;;;;;;5055900;28;20378;-66
2024/03/04 10:27:08;;;;;;;7.85;1.00;;;8.60;99.90;;;;;;5055588;28;20501;-65
2024/03/04 10:29:35;;;;;;;6.93;1.30;;;8.60;99.90;;;;;;5053560;28;20057;-65
2024/03/04 10:32:02;;;;;;;7.32;1.38;;;8.70;99.90;;;;;;5036491;28;20045;-65
2024/03/04 10:34:29;;;;;;;10.35;1.67;;;8.80;99.90;;;;;;5036063;28;20041;-65
2024/03/04 10:36:58;;;;;;;7.07;1.55;;;8.90;99.90;;;;;;5035653;28;20095;-66
2024/03/04 10:39:29;;;;;;;6.45;1.55;;;8.90;99.90;;;;;;5036112;28;20076;-65
2024/03/04 10:41:56;;;;;;;11.18;1.73;;;9.00;99.90;;;;;;5035864;28;20037;-65
2024/03/04 10:44:23;;;;;;;8.73;1.60;;;8.90;99.90;;;;;;5036133;28;20532;-65
2024/03/04 10:46:50;;;;;;;9.52;2.67;;;9.00;99.90;;;;;;5035594;28;20041;-66
2024/03/04 10:49:17;;;;;;;9.40;2.80;;;9.00;99.90;;;;;;5035471;28;20038;-65
2024/03/04 10:51:44;;;;;;;8.35;2.47;;;9.00;99.90;;;;;;5034483;28;20037;-64
2024/03/04 10:54:24;;;;;;;6.00;1.63;;;9.10;99.90;;;;;;5035826;28;20125;-67
2024/03/04 10:56:50;;;;;;;8.88;1.70;;;9.10;99.90;;;;;;5035401;28;20053;-68
2024/03/04 10:59:17;;;;;;;9.73;1.95;;;9.10;99.90;;;;;;5039175;28;20037;-67
2024/03/04 11:01:44;;;;;;;8.68;2.38;;;9.30;99.90;;;;;;5035973;28;20041;-66
2024/03/04 11:04:11;;;;;;;7.88;1.83;;;9.40;99.90;;;;;;5035474;28;20045;-66
2024/03/04 11:06:38;;;;;;;9.02;1.95;;;9.50;99.90;;;;;;5035184;28;20042;-66
2024/03/04 11:09:05;;;;;;;5.18;1.40;;;9.50;99.90;;;;;;5035187;28;20095;-67
2024/03/04 11:11:31;;;;;;;11.20;1.90;;;9.40;99.90;;;;;;5034268;28;20400;-66
2024/03/04 11:13:58;;;;;;;6.03;1.30;;;9.40;99.90;;;;;;5035449;28;20034;-67
2024/03/04 11:16:25;;;;;;;7.55;1.80;;;9.40;99.90;;;;;;5035304;28;20056;-67
2024/03/04 11:18:52;;;;;;;11.00;2.17;;;9.30;99.90;;;;;;5035418;28;20048;-67
2024/03/04 11:21:18;;;;;;;8.85;1.88;;;9.30;99.90;;;;;;5035166;28;20042;-67
2024/03/04 11:23:45;;;;;;;7.38;1.60;;;9.30;99.90;;;;;;5034684;28;20096;-67
2024/03/04 11:26:12;;;;;;;6.13;1.80;;;9.40;99.90;;;;;;5034826;28;20045;-67
2024/03/04 11:28:39;;;;;;;6.43;1.70;;;9.40;99.90;;;;;;5035171;28;20513;-67
2024/03/04 11:31:08;;;;;;;6.80;1.67;;;9.50;99.90;;;;;;5041786;28;20056;-66
2024/03/04 11:33:38;;;;;;;7.60;1.58;;;9.60;99.90;;;;;;5035042;28;20041;-66
2024/03/04 11:36:05;;;;;;;7.55;1.63;;;9.70;99.90;;;;;;5034582;28;20609;-66
2024/03/04 11:38:32;;;;;;;9.52;1.40;;;9.90;99.90;;;;;;5033637;28;20060;-67
2024/03/04 11:40:58;;;;;;;7.43;1.77;;;9.90;99.90;;;;;;5034623;28;20121;-68
2024/03/04 11:43:25;;;;;;;8.20;1.45;;;9.90;99.90;;;;;;5034571;28;20478;-67
2024/03/04 11:45:52;;;;;;;9.15;1.88;;;9.90;99.90;;;;;;5029606;28;20081;-68
2024/03/04 11:48:19;;;;;;;10.05;1.58;;;10.00;99.90;;;;;;5029043;28;20037;-67
2024/03/04 11:50:49;;;;;;;6.15;1.70;;;10.10;99.90;;;;;;5034324;28;20037;-67
2024/03/04 11:53:15;;;;;;;9.50;1.38;;;10.20;99.90;;;;;;5033281;28;20120;-66
2024/03/04 11:55:42;;;;;;;5.60;1.40;;;10.30;99.90;;;;;;5035517;28;20048;-66
2024/03/04 11:58:09;;;;;;;19.38;2.60;;;10.40;99.90;;;;;;5037914;28;20045;-67
2024/03/04 12:00:36;;;;;;;11.57;1.50;;;10.50;99.90;;;;;;5033606;28;20076;-67
2024/03/04 12:03:03;;;;;;;7.88;1.80;;;10.60;99.90;;;;;;5033581;28;20124;-64
2024/03/04 12:05:34;;;;;;;8.13;1.20;;;10.60;99.90;;;;;;5032179;28;20041;-65
2024/03/04 12:08:02;;;;;;;6.72;1.45;;;10.60;99.90;;;;;;5033410;28;20071;-65
2024/03/04 12:10:38;;;;;;;5.10;1.23;;;10.70;99.90;;;;;;5032801;28;20109;-66
2024/03/04 12:13:05;;;;;;;8.10;1.60;;;10.60;99.90;;;;;;5031202;28;20517;-66
2024/03/04 12:15:32;;;;;;;7.63;1.88;;;10.60;99.90;;;;;;5032279;28;20053;-66
2024/03/04 12:17:59;;;;;;;9.20;1.42;;;10.60;99.90;;;;;;5034074;28;20498;-66
2024/03/04 12:20:26;;;;;;;7.15;1.48;;;10.70;99.90;;;;;;5036689;28;20033;-66
2024/03/04 12:22:52;;;;;;;5.72;1.55;;;10.70;99.90;;;;;;5054544;28;20037;-66
2024/03/04 12:25:19;;;;;;;6.22;1.35;;;10.80;99.90;;;;;;5052662;28;20383;-66
2024/03/04 12:27:47;;;;;;;6.38;1.20;;;10.80;99.90;;;;;;5054304;28;20047;-66
2024/03/04 12:30:14;;;;;;;9.27;1.70;;;10.80;99.90;;;;;;5054050;28;20107;-66
2024/03/04 12:32:41;;;;;;;5.80;1.30;;;10.70;99.90;;;;;;5053896;28;20036;-66
2024/03/04 12:35:08;;;;;;;9.35;1.75;;;10.70;99.90;;;;;;5052535;28;20037;-67
2024/03/04 12:37:35;;;;;;;5.97;1.33;;;10.60;99.90;;;;;;5053655;28;20057;-67
2024/03/04 12:40:04;;;;;;;5.10;1.40;;;10.60;99.90;;;;;;5051201;28;20041;-67
2024/03/04 12:42:30;;;;;;;4.53;1.30;;;10.60;99.90;;;;;;5050706;28;20502;-67
2024/03/04 12:44:57;;;;;;;6.22;1.15;;;10.60;99.90;;;;;;5053731;28;20442;-67
2024/03/04 12:47:24;;;;;;;5.90;1.35;;;10.60;99.90;;;;;;5052696;28;20037;-68
2024/03/04 12:49:51;;;;;;;7.50;2.00;;;10.70;99.90;;;;;;5053764;28;20540;-66
2024/03/04 12:52:18;;;;;;;6.30;1.27;;;10.60;99.90;;;;;;5052748;28;20423;-66
2024/03/04 12:54:44;;;;;;;9.13;1.80;;;10.60;99.90;;;;;;5053843;28;20120;-66